createdAt,value
2022-10-25T00:00:16.932Z,97.3
2022-10-25T00:01:17.542Z,97.4
2022-10-25T00:02:17.547Z,97.4
2022-10-25T00:03:17.057Z,97.5
2022-10-25T00:04:16.609Z,97.7
2022-10-25T00:05:17.115Z,97.8
2022-10-25T00:06:16.549Z,97.8
2022-10-25T00:07:17.000Z,97.8
2022-10-25T00:08:16.424Z,97.8
2022-10-25T00:09:16.905Z,97.8
2022-10-25T00:10:21.155Z,97.8
2022-10-25T00:11:17.218Z,97.8
2022-10-25T00:12:16.670Z,97.8
2022-10-25T00:13:17.173Z,97.8
2022-10-25T00:14:16.697Z,97.9
2022-10-25T00:15:17.152Z,97.9
2022-10-25T00:16:16.615Z,98.0
2022-10-25T00:17:17.063Z,98.0
2022-10-25T00:18:16.540Z,98.0
2022-10-25T00:19:17.005Z,98.0
2022-10-25T00:20:16.433Z,98.0
2022-10-25T00:21:16.890Z,98.1
2022-10-25T00:22:16.515Z,98.0
2022-10-25T00:23:16.931Z,98.0
2022-10-25T00:24:17.403Z,98.0
2022-10-25T00:25:16.873Z,98.0
2022-10-25T00:26:17.338Z,98.1
2022-10-25T00:27:16.803Z,98.1
2022-10-25T00:28:17.328Z,98.2
2022-10-25T00:29:16.879Z,98.2
2022-10-25T00:30:17.383Z,98.1
2022-10-25T00:31:16.825Z,98.1
2022-10-25T00:32:17.202Z,98.1
2022-10-25T00:33:16.671Z,98.1
2022-10-25T00:34:17.107Z,98.2
2022-10-25T00:35:16.547Z,98.2
2022-10-25T00:36:16.979Z,98.2
2022-10-25T00:37:16.394Z,98.2
2022-10-25T00:38:16.835Z,98.2
2022-10-25T00:39:17.339Z,98.2
2022-10-25T00:40:16.808Z,98.2
2022-10-25T00:41:17.301Z,98.2
2022-10-25T00:42:17.003Z,98.2
2022-10-25T00:43:16.469Z,98.3
2022-10-25T00:44:16.983Z,98.3
2022-10-25T00:45:16.428Z,98.3
2022-10-25T00:46:16.863Z,98.3
2022-10-25T00:47:17.292Z,98.5
2022-10-25T00:48:16.713Z,98.5
2022-10-25T00:49:17.159Z,98.5
2022-10-25T00:50:16.583Z,98.5
2022-10-25T00:51:17.019Z,98.4
2022-10-25T00:52:16.795Z,98.5
2022-10-25T00:53:17.213Z,98.4
2022-10-25T00:54:16.822Z,98.4
2022-10-25T00:55:17.337Z,98.5
2022-10-25T00:56:16.839Z,98.4
2022-10-25T00:57:17.349Z,98.3
2022-10-25T00:58:16.945Z,98.3
2022-10-25T00:59:17.432Z,98.2
2022-10-25T01:00:16.897Z,98.2
2022-10-25T01:01:17.590Z,98.3
2022-10-25T01:02:17.371Z,98.3
2022-10-25T01:03:16.943Z,98.3
2022-10-25T01:04:17.381Z,98.3
2022-10-25T01:05:16.801Z,98.4
2022-10-25T01:06:17.260Z,98.4
2022-10-25T01:07:16.691Z,98.5
2022-10-25T01:08:17.152Z,98.4
2022-10-25T01:09:16.624Z,98.4
2022-10-25T01:14:16.450Z,98.5
2022-10-25T01:15:16.890Z,98.5
2022-10-25T01:16:17.315Z,98.7
2022-10-25T01:17:16.738Z,98.8
2022-10-25T01:18:17.194Z,98.7
2022-10-25T01:19:16.647Z,98.8
2022-10-25T01:20:17.074Z,98.8
2022-10-25T01:21:16.490Z,98.8
2022-10-25T01:22:17.195Z,98.8
2022-10-25T01:23:16.651Z,98.9
2022-10-25T01:24:17.098Z,98.8
2022-10-25T01:25:16.559Z,98.8
2022-10-25T01:26:17.024Z,98.8
2022-10-25T01:27:16.479Z,99.0
2022-10-25T01:28:16.954Z,99.0
2022-10-25T01:29:17.455Z,99.2
2022-10-25T01:30:16.882Z,99.1
2022-10-25T01:31:17.355Z,99.2
2022-10-25T01:32:17.397Z,99.3
2022-10-25T01:33:16.862Z,99.2
2022-10-25T01:34:17.302Z,99.2
2022-10-25T01:35:16.728Z,99.3
2022-10-25T01:36:17.182Z,99.5
2022-10-25T01:37:16.646Z,99.5
2022-10-25T01:38:17.131Z,99.5
2022-10-25T01:39:16.622Z,99.5
2022-10-25T01:40:17.084Z,99.5
2022-10-25T01:41:16.574Z,99.5
2022-10-25T01:42:16.567Z,99.5
2022-10-25T01:43:17.019Z,99.5
2022-10-25T01:44:16.514Z,99.5
2022-10-25T01:45:16.969Z,99.5
2022-10-25T01:46:17.423Z,99.5
2022-10-25T01:47:16.852Z,99.5
2022-10-25T01:48:17.281Z,99.5
2022-10-25T01:49:16.729Z,99.5
2022-10-25T01:50:17.149Z,99.6
2022-10-25T01:51:16.591Z,99.6
2022-10-25T01:52:17.280Z,99.5
2022-10-25T01:53:16.765Z,99.5
2022-10-25T01:54:17.249Z,99.6
2022-10-25T01:55:16.747Z,99.7
2022-10-25T01:56:17.215Z,99.7
2022-10-25T01:57:16.689Z,99.7
2022-10-25T01:58:17.150Z,99.8
2022-10-25T01:59:16.620Z,99.7
2022-10-25T02:00:17.043Z,99.8
2022-10-25T02:01:16.903Z,99.8
2022-10-25T02:02:17.371Z,99.8
2022-10-25T02:03:16.791Z,99.8
2022-10-25T02:04:17.238Z,99.8
2022-10-25T02:05:16.687Z,99.8
2022-10-25T02:06:17.144Z,99.9
2022-10-25T02:07:16.608Z,99.9
2022-10-25T02:08:17.090Z,99.9
2022-10-25T02:09:16.574Z,99.8
2022-10-25T02:10:17.041Z,99.8
2022-10-25T02:11:16.534Z,99.8
2022-10-25T02:12:17.395Z,99.7
2022-10-25T02:13:16.852Z,99.7
2022-10-25T02:14:17.319Z,99.6
2022-10-25T02:15:16.743Z,99.5
2022-10-25T02:16:17.179Z,99.5
2022-10-25T02:17:16.624Z,99.5
2022-10-25T02:18:17.312Z,99.5
2022-10-25T02:19:16.773Z,99.5
2022-10-25T02:20:17.201Z,99.5
2022-10-25T02:21:16.647Z,99.3
2022-10-25T02:22:17.222Z,99.3
2022-10-25T02:23:16.688Z,99.3
2022-10-25T02:24:17.186Z,99.3
2022-10-25T02:25:16.681Z,99.3
2022-10-25T02:26:17.137Z,99.4
2022-10-25T02:27:16.620Z,99.4
2022-10-25T02:28:17.087Z,99.5
2022-10-25T02:29:16.521Z,99.5
2022-10-25T02:30:16.955Z,99.5
2022-10-25T02:31:17.426Z,99.5
2022-10-25T02:32:17.193Z,99.5
2022-10-25T02:33:16.623Z,99.5
2022-10-25T02:34:17.062Z,99.5
2022-10-25T02:35:16.499Z,99.5
2022-10-25T02:36:17.003Z,99.4
2022-10-25T02:37:16.477Z,99.5
2022-10-25T02:38:16.928Z,99.4
2022-10-25T02:39:17.422Z,99.4
2022-10-25T02:40:16.893Z,99.3
2022-10-25T02:41:17.450Z,99.3
2022-10-25T02:42:17.299Z,99.3
2022-10-25T02:43:16.904Z,99.4
2022-10-25T02:44:17.388Z,99.5
2022-10-25T02:45:16.825Z,99.5
2022-10-25T02:46:17.263Z,99.5
2022-10-25T02:47:16.705Z,99.5
2022-10-25T02:48:16.569Z,99.5
2022-10-25T02:49:17.005Z,99.5
2022-10-25T02:50:16.458Z,99.5
2022-10-25T02:51:16.929Z,99.3
2022-10-25T02:52:16.435Z,99.4
2022-10-25T02:53:16.888Z,99.3
2022-10-25T02:54:17.370Z,99.3
2022-10-25T02:55:16.821Z,99.3
2022-10-25T02:56:17.288Z,99.4
2022-10-25T02:57:16.758Z,99.5
2022-10-25T02:58:17.178Z,99.5
2022-10-25T02:59:16.605Z,99.5
2022-10-25T03:00:17.065Z,99.5
2022-10-25T03:01:16.744Z,99.5
2022-10-25T03:02:16.775Z,99.5
2022-10-25T03:03:17.198Z,99.5
2022-10-25T03:04:16.633Z,99.5
2022-10-25T03:05:17.089Z,99.5
2022-10-25T03:06:16.550Z,99.5
2022-10-25T03:07:17.024Z,99.5
2022-10-25T03:08:16.588Z,99.5
2022-10-25T03:09:17.078Z,99.4
2022-10-25T03:10:16.557Z,99.3
2022-10-25T03:11:17.021Z,99.3
2022-10-25T03:12:16.680Z,99.3
2022-10-25T03:13:17.121Z,99.3
2022-10-25T03:14:16.571Z,99.3
2022-10-25T03:15:16.996Z,99.3
2022-10-25T03:16:16.436Z,99.3
2022-10-25T03:17:16.890Z,99.3
2022-10-25T03:18:17.320Z,99.3
2022-10-25T03:19:16.772Z,99.3
2022-10-25T03:20:17.216Z,99.3
2022-10-25T03:21:16.679Z,99.3
2022-10-25T03:22:17.300Z,99.2
2022-10-25T03:23:16.765Z,99.2
2022-10-25T03:24:17.211Z,99.1
2022-10-25T03:25:16.683Z,99.2
2022-10-25T03:26:17.171Z,99.2
2022-10-25T03:27:16.598Z,99.2
2022-10-25T03:28:17.018Z,99.2
2022-10-25T03:29:16.473Z,99.2
2022-10-25T03:30:16.897Z,99.2
2022-10-25T03:31:17.348Z,99.2
2022-10-25T03:32:17.266Z,99.2
2022-10-25T03:33:16.842Z,99.2
2022-10-25T03:34:17.431Z,99.2
2022-10-25T03:35:16.885Z,99.2
2022-10-25T03:36:17.378Z,99.2
2022-10-25T03:37:16.846Z,99.2
2022-10-25T03:38:17.310Z,99.2
2022-10-25T03:39:16.768Z,99.4
2022-10-25T03:40:17.254Z,99.4
2022-10-25T03:41:16.727Z,99.4
2022-10-25T03:42:16.818Z,99.4
2022-10-25T03:43:17.395Z,99.4
2022-10-25T03:44:16.887Z,99.5
2022-10-25T03:45:17.328Z,99.5
2022-10-25T03:46:16.795Z,99.5
2022-10-25T03:47:17.250Z,99.7
2022-10-25T03:48:16.668Z,99.5
2022-10-25T03:49:17.162Z,99.5
2022-10-25T03:50:16.654Z,99.5
2022-10-25T03:51:17.144Z,99.5
2022-10-25T03:52:16.971Z,99.5
2022-10-25T03:53:17.457Z,99.5
2022-10-25T03:54:16.931Z,99.7
2022-10-25T03:55:17.372Z,99.8
2022-10-25T03:56:16.833Z,99.7
2022-10-25T03:57:17.257Z,99.7
2022-10-25T03:58:16.687Z,99.7
2022-10-25T03:59:17.115Z,99.6
2022-10-25T04:00:16.587Z,99.5
2022-10-25T04:01:17.302Z,99.4
2022-10-25T04:02:17.146Z,99.3
2022-10-25T04:03:16.568Z,99.3
2022-10-25T04:04:17.018Z,99.2
2022-10-25T04:05:16.487Z,99.2
2022-10-25T04:06:16.987Z,99.2
2022-10-25T04:07:16.455Z,99.1
2022-10-25T04:08:16.911Z,99.0
2022-10-25T04:09:17.403Z,99.1
2022-10-25T04:10:16.869Z,99.1
2022-10-25T04:11:17.344Z,99.2
2022-10-25T04:12:17.059Z,99.1
2022-10-25T04:13:16.510Z,99.1
2022-10-25T04:14:16.933Z,99.0
2022-10-25T04:15:17.382Z,99.0
2022-10-25T04:16:19.275Z,99.1
2022-10-25T04:17:16.769Z,99.1
2022-10-25T04:18:17.358Z,99.1
2022-10-25T04:19:16.817Z,99.2
2022-10-25T04:20:17.318Z,99.2
2022-10-25T04:21:16.793Z,99.1
2022-10-25T04:22:16.704Z,99.1
2022-10-25T04:23:17.210Z,99.0
2022-10-25T04:24:16.706Z,99.0
2022-10-25T04:25:17.168Z,99.0
2022-10-25T04:26:16.591Z,99.0
2022-10-25T04:27:17.019Z,99.0
2022-10-25T04:28:16.452Z,99.0
2022-10-25T04:29:16.902Z,99.0
2022-10-25T04:30:17.363Z,99.0
2022-10-25T04:31:16.785Z,99.0
2022-10-25T04:32:17.424Z,99.0
2022-10-25T04:33:16.903Z,99.0
2022-10-25T04:34:17.396Z,99.0
2022-10-25T04:35:17.053Z,99.0
2022-10-25T04:36:16.529Z,99.0
2022-10-25T04:37:17.032Z,99.0
2022-10-25T04:38:16.493Z,98.9
2022-10-25T04:39:16.922Z,98.9
2022-10-25T04:40:24.878Z,98.9
2022-10-25T04:41:16.455Z,98.9
2022-10-25T04:42:16.813Z,99.0
2022-10-25T04:43:17.244Z,99.0
2022-10-25T04:44:16.670Z,99.0
2022-10-25T04:45:17.100Z,99.0
2022-10-25T04:46:16.540Z,99.0
2022-10-25T04:47:17.006Z,98.9
2022-10-25T04:48:16.458Z,98.9
2022-10-25T04:49:16.920Z,98.9
2022-10-25T04:50:17.405Z,98.8
2022-10-25T04:51:16.877Z,98.9
2022-10-25T04:52:16.710Z,98.9
2022-10-25T04:53:17.194Z,98.8
2022-10-25T04:54:16.619Z,98.8
2022-10-25T04:55:17.083Z,98.8
2022-10-25T04:56:16.526Z,98.8
2022-10-25T04:57:16.951Z,98.8
2022-10-25T04:58:17.427Z,98.8
2022-10-25T04:59:16.898Z,98.8
2022-10-25T05:00:17.377Z,98.8
2022-10-25T05:01:17.030Z,98.8
2022-10-25T05:02:16.708Z,98.8
2022-10-25T05:03:17.287Z,98.9
2022-10-25T05:04:16.792Z,98.9
2022-10-25T05:05:17.290Z,99.0
2022-10-25T05:06:16.816Z,99.0
2022-10-25T05:07:17.281Z,99.0
2022-10-25T05:08:16.703Z,99.0
2022-10-25T05:09:17.133Z,99.0
2022-10-25T05:10:16.562Z,99.0
2022-10-25T05:11:17.024Z,99.0
2022-10-25T05:12:16.676Z,99.0
2022-10-25T05:13:17.112Z,99.0
2022-10-25T05:14:16.562Z,99.0
2022-10-25T05:15:17.008Z,99.0
2022-10-25T05:16:16.485Z,99.0
2022-10-25T05:17:16.960Z,99.0
2022-10-25T05:18:17.432Z,99.0
2022-10-25T05:19:16.902Z,99.0
2022-10-25T05:20:17.376Z,99.0
2022-10-25T05:21:17.111Z,99.0
2022-10-25T05:22:16.591Z,99.0
2022-10-25T05:23:17.014Z,99.0
2022-10-25T05:24:16.464Z,99.0
2022-10-25T05:25:16.884Z,98.9
2022-10-25T05:26:17.338Z,98.9
2022-10-25T05:27:16.782Z,98.9
2022-10-25T05:28:17.211Z,98.9
2022-10-25T05:29:16.672Z,98.9
2022-10-25T05:30:17.131Z,98.9
2022-10-25T05:31:16.599Z,98.9
2022-10-25T05:32:17.137Z,98.9
2022-10-25T05:33:16.602Z,98.8
2022-10-25T05:34:17.053Z,98.8
2022-10-25T05:35:16.506Z,98.8
2022-10-25T05:36:16.955Z,98.9
2022-10-25T05:37:17.441Z,98.9
2022-10-25T05:38:16.886Z,98.9
2022-10-25T05:39:17.319Z,98.9
2022-10-25T05:40:16.737Z,98.9
2022-10-25T05:41:17.157Z,99.0
2022-10-25T05:42:16.985Z,99.0
2022-10-25T05:43:16.410Z,98.9
2022-10-25T05:44:16.861Z,98.9
2022-10-25T05:45:17.352Z,98.9
2022-10-25T05:46:16.847Z,98.9
2022-10-25T05:47:17.322Z,99.0
2022-10-25T05:48:16.790Z,99.0
2022-10-25T05:49:17.314Z,99.0
2022-10-25T05:50:16.787Z,98.9
2022-10-25T05:51:34.489Z,99.0
2022-10-25T05:52:16.686Z,99.0
2022-10-25T05:53:17.105Z,98.9
2022-10-25T05:54:16.541Z,98.8
2022-10-25T05:55:17.002Z,98.8
2022-10-25T05:56:16.423Z,98.8
2022-10-25T05:57:16.878Z,98.8
2022-10-25T05:58:17.293Z,98.8
2022-10-25T05:59:16.745Z,98.8
2022-10-25T06:00:17.205Z,98.8
2022-10-25T06:01:16.951Z,98.8
2022-10-25T06:02:16.849Z,98.8
2022-10-25T06:03:17.406Z,98.8
2022-10-25T06:04:16.875Z,98.8
2022-10-25T06:05:17.846Z,98.8
2022-10-25T06:06:17.267Z,98.9
2022-10-25T06:07:16.720Z,99.0
2022-10-25T06:08:17.149Z,99.0
2022-10-25T06:09:16.575Z,99.0
2022-10-25T06:10:17.041Z,99.0
2022-10-25T06:11:16.475Z,99.0
2022-10-25T06:12:17.222Z,99.0
2022-10-25T06:13:16.667Z,99.0
2022-10-25T06:14:17.129Z,99.0
2022-10-25T06:15:16.600Z,99.0
2022-10-25T06:16:17.055Z,98.9
2022-10-25T06:17:16.532Z,98.9
2022-10-25T06:18:16.974Z,99.0
2022-10-25T06:19:16.420Z,99.0
2022-10-25T06:20:16.863Z,99.0
2022-10-25T06:21:17.299Z,99.0
2022-10-25T06:22:17.082Z,99.0
2022-10-25T06:23:16.527Z,99.0
2022-10-25T06:24:16.987Z,99.0
2022-10-25T06:25:16.414Z,99.0
2022-10-25T06:26:16.842Z,99.0
2022-10-25T06:27:17.325Z,99.0
2022-10-25T06:28:16.805Z,99.0
2022-10-25T06:29:17.286Z,99.0
2022-10-25T06:30:16.836Z,99.0
2022-10-25T06:31:17.376Z,99.0
2022-10-25T06:32:16.865Z,99.0
2022-10-25T06:33:17.326Z,99.0
2022-10-25T06:34:16.784Z,99.0
2022-10-25T06:35:17.219Z,99.0
2022-10-25T06:36:16.680Z,98.9
2022-10-25T06:37:17.121Z,98.8
2022-10-25T06:38:16.541Z,98.8
2022-10-25T06:39:17.003Z,98.7
2022-10-25T06:40:16.493Z,98.7
2022-10-25T06:41:16.974Z,98.7
2022-10-25T06:42:16.685Z,98.6
2022-10-25T06:43:17.150Z,98.5
2022-10-25T06:44:16.637Z,98.5
2022-10-25T06:45:17.347Z,98.3
2022-10-25T06:46:16.835Z,98.3
2022-10-25T06:47:18.466Z,98.3
2022-10-25T06:48:17.004Z,98.3
2022-10-25T06:49:16.432Z,98.2
2022-10-25T06:50:16.863Z,98.2
2022-10-25T06:51:17.314Z,98.2
2022-10-25T06:52:17.371Z,98.2
2022-10-25T06:53:16.840Z,98.2
2022-10-25T06:54:17.275Z,98.2
2022-10-25T06:55:16.694Z,98.2
2022-10-25T06:56:17.137Z,98.2
2022-10-25T06:57:16.600Z,98.0
2022-10-25T06:58:17.058Z,98.0
2022-10-25T06:59:16.552Z,97.9
2022-10-25T07:00:17.050Z,97.8
2022-10-25T07:01:16.733Z,97.8
2022-10-25T07:02:17.651Z,97.6
2022-10-25T07:03:17.165Z,97.7
2022-10-25T07:04:16.629Z,97.5
2022-10-25T07:05:17.118Z,97.5
2022-10-25T07:06:16.568Z,97.5
2022-10-25T07:07:17.040Z,97.5
2022-10-25T07:08:16.480Z,97.2
2022-10-25T07:09:16.915Z,97.3
2022-10-25T07:10:17.366Z,97.3
2022-10-25T07:11:16.809Z,97.2
2022-10-25T07:12:16.545Z,97.1
2022-10-25T07:13:17.012Z,97.0
2022-10-25T07:14:16.506Z,97.0
2022-10-25T07:15:17.059Z,97.0
2022-10-25T07:16:16.588Z,97.0
2022-10-25T07:17:17.065Z,97.0
2022-10-25T07:18:16.554Z,97.0
2022-10-25T07:19:17.016Z,97.0
2022-10-25T07:20:16.472Z,97.0
2022-10-25T07:21:16.901Z,96.9
2022-10-25T07:22:16.979Z,97.0
2022-10-25T07:23:16.436Z,96.9
2022-10-25T07:24:16.858Z,96.5
2022-10-25T07:25:17.303Z,96.7
2022-10-25T07:26:16.758Z,96.7
2022-10-25T07:27:17.224Z,96.7
2022-10-25T07:28:16.708Z,96.7
2022-10-25T07:29:17.168Z,96.5
2022-10-25T07:30:16.630Z,96.7
2022-10-25T07:31:17.102Z,96.0
2022-10-25T07:32:17.304Z,96.2
2022-10-25T07:33:16.763Z,96.3
2022-10-25T07:34:17.220Z,96.3
2022-10-25T07:35:16.664Z,95.9
2022-10-25T07:36:17.144Z,95.3
2022-10-25T07:37:16.580Z,95.1
2022-10-25T07:38:17.019Z,95.2
2022-10-25T07:39:16.444Z,95.0
2022-10-25T07:40:16.870Z,95.0
2022-10-25T07:41:17.354Z,95.2
2022-10-25T07:42:17.034Z,95.2
2022-10-25T07:43:16.504Z,95.1
2022-10-25T07:44:24.013Z,95.2
2022-10-25T07:45:23.670Z,94.7
2022-10-25T07:46:16.896Z,94.5
2022-10-25T07:47:17.362Z,94.0
2022-10-25T07:48:16.829Z,92.9
2022-10-25T07:49:17.255Z,93.0
2022-10-25T07:50:16.681Z,93.3
2022-10-25T07:51:17.154Z,93.6
2022-10-25T07:52:16.872Z,93.3
2022-10-25T07:53:17.341Z,92.8
2022-10-25T07:54:16.825Z,92.5
2022-10-25T07:55:17.275Z,92.3
2022-10-25T07:56:23.837Z,92.5
2022-10-25T07:57:16.472Z,92.4
2022-10-25T07:58:16.940Z,92.5
2022-10-25T07:59:17.443Z,92.2
2022-10-25T08:00:16.894Z,91.9
2022-10-25T08:01:17.442Z,91.4
2022-10-25T08:02:17.224Z,91.2
2022-10-25T08:03:16.905Z,91.0
2022-10-25T08:04:17.368Z,91.2
2022-10-25T08:05:16.816Z,90.4
2022-10-25T08:06:17.269Z,90.9
2022-10-25T08:07:16.686Z,91.0
2022-10-25T08:08:17.125Z,90.9
2022-10-25T08:09:37.498Z,91.0
2022-10-25T08:10:16.519Z,90.7
2022-10-25T08:11:17.004Z,90.4
2022-10-25T08:12:22.671Z,90.3
2022-10-25T08:13:17.220Z,90.0
2022-10-25T08:14:16.782Z,90.2
2022-10-25T08:15:17.323Z,90.0
2022-10-25T08:16:16.799Z,89.8
2022-10-25T08:17:17.242Z,89.2
2022-10-25T08:18:16.683Z,89.1
2022-10-25T08:19:17.137Z,88.2
2022-10-25T08:20:16.586Z,87.8
2022-10-25T08:21:17.044Z,86.4
2022-10-25T08:22:16.726Z,86.0
2022-10-25T08:23:17.150Z,87.0
2022-10-25T08:24:16.846Z,86.4
2022-10-25T08:25:17.352Z,87.2
2022-10-25T08:26:16.811Z,88.2
2022-10-25T08:27:17.274Z,89.0
2022-10-25T08:28:16.756Z,88.3
2022-10-25T08:29:17.255Z,88.3
2022-10-25T08:30:16.732Z,88.8
2022-10-25T08:31:17.216Z,88.3
2022-10-25T08:32:16.780Z,87.8
2022-10-25T08:33:17.220Z,88.1
2022-10-25T08:34:16.747Z,89.2
2022-10-25T08:35:17.171Z,88.4
2022-10-25T08:36:16.595Z,88.3
2022-10-25T08:37:17.058Z,88.3
2022-10-25T08:38:16.519Z,89.2
2022-10-25T08:39:16.988Z,88.1
2022-10-25T08:40:16.450Z,88.7
2022-10-25T08:41:16.926Z,88.2
2022-10-25T08:42:16.691Z,88.3
2022-10-25T08:43:17.134Z,88.7
2022-10-25T08:44:16.594Z,89.0
2022-10-25T08:45:17.071Z,89.2
2022-10-25T08:46:16.544Z,88.8
2022-10-25T08:47:17.010Z,88.5
2022-10-25T08:48:16.438Z,87.5
2022-10-25T08:49:16.860Z,87.8
2022-10-25T08:50:17.383Z,87.6
2022-10-25T08:51:16.802Z,86.7
2022-10-25T08:52:17.703Z,87.1
2022-10-25T08:53:17.161Z,86.4
2022-10-25T08:54:16.710Z,86.5
2022-10-25T08:55:17.178Z,85.9
2022-10-25T08:56:17.891Z,84.7
2022-10-25T08:57:17.425Z,84.9
2022-10-25T08:58:16.918Z,84.8
2022-10-25T08:59:17.398Z,84.5
2022-10-25T09:00:16.884Z,84.8
2022-10-25T09:01:17.515Z,84.7
2022-10-25T09:02:16.932Z,84.3
2022-10-25T09:03:17.380Z,84.6
2022-10-25T09:04:16.822Z,84.7
2022-10-25T09:05:17.314Z,84.2
2022-10-25T09:06:16.757Z,83.8
2022-10-25T09:07:17.205Z,84.2
2022-10-25T09:08:16.709Z,84.3
2022-10-25T09:09:17.189Z,83.5
2022-10-25T09:10:16.705Z,83.4
2022-10-25T09:11:17.181Z,83.2
2022-10-25T09:12:17.044Z,82.8
2022-10-25T09:13:16.496Z,83.2
2022-10-25T09:14:16.979Z,83.4
2022-10-25T09:15:16.453Z,82.2
2022-10-25T09:16:16.912Z,82.2
2022-10-25T09:17:17.343Z,81.8
2022-10-25T09:18:16.829Z,82.8
2022-10-25T09:19:17.301Z,83.5
2022-10-25T09:20:16.730Z,83.8
2022-10-25T09:21:22.929Z,83.0
2022-10-25T09:22:16.849Z,83.5
2022-10-25T09:23:17.433Z,82.9
2022-10-25T09:24:16.942Z,82.8
2022-10-25T09:25:17.458Z,82.9
2022-10-25T09:26:16.957Z,83.2
2022-10-25T09:27:17.434Z,83.7
2022-10-25T09:28:16.921Z,83.8
2022-10-25T09:29:17.379Z,83.8
2022-10-25T09:30:16.870Z,82.2
2022-10-25T09:31:17.294Z,81.1
2022-10-25T09:32:17.170Z,80.8
2022-10-25T09:34:17.053Z,80.1
2022-10-25T09:35:16.647Z,80.5
2022-10-25T09:36:17.081Z,80.2
2022-10-25T09:37:16.551Z,80.1
2022-10-25T09:38:17.023Z,79.2
2022-10-25T09:39:16.493Z,78.7
2022-10-25T09:40:17.042Z,77.9
2022-10-25T09:41:16.627Z,77.5
2022-10-25T09:42:17.412Z,77.8
2022-10-25T09:43:16.913Z,77.7
2022-10-25T09:44:17.371Z,77.8
2022-10-25T09:45:16.814Z,78.2
2022-10-25T09:46:17.244Z,78.3
2022-10-25T09:47:16.717Z,79.5
2022-10-25T09:48:17.146Z,79.1
2022-10-25T09:49:16.589Z,78.6
2022-10-25T09:50:17.049Z,79.1
2022-10-25T09:51:16.504Z,79.1
2022-10-25T09:52:17.192Z,80.1
2022-10-25T09:53:21.884Z,79.0
2022-10-25T09:54:16.733Z,79.7
2022-10-25T09:55:17.191Z,78.8
2022-10-25T09:56:16.705Z,78.5
2022-10-25T09:57:17.171Z,78.8
2022-10-25T09:58:16.641Z,79.5
2022-10-25T09:59:17.064Z,80.0
2022-10-25T10:00:16.559Z,79.9
2022-10-25T10:01:17.392Z,80.1
2022-10-25T10:02:17.141Z,78.6
2022-10-25T10:03:16.653Z,78.9
2022-10-25T10:04:17.075Z,78.8
2022-10-25T10:05:16.545Z,78.8
2022-10-25T10:06:17.012Z,78.8
2022-10-25T10:07:16.502Z,78.7
2022-10-25T10:08:16.968Z,79.3
2022-10-25T10:09:17.426Z,79.2
2022-10-25T10:10:16.913Z,79.4
2022-10-25T10:11:17.383Z,79.2
2022-10-25T10:12:16.513Z,79.6
2022-10-25T10:13:16.974Z,79.5
2022-10-25T10:14:17.395Z,80.4
2022-10-25T10:15:16.825Z,80.2
2022-10-25T10:16:17.270Z,81.0
2022-10-25T10:17:16.709Z,81.0
2022-10-25T10:18:17.159Z,81.0
2022-10-25T10:19:16.581Z,80.8
2022-10-25T10:20:17.051Z,80.2
2022-10-25T10:21:16.539Z,80.8
2022-10-25T10:22:17.398Z,80.3
2022-10-25T10:23:16.915Z,80.0
2022-10-25T10:24:17.388Z,79.4
2022-10-25T10:25:16.881Z,80.2
2022-10-25T10:26:17.404Z,80.4
2022-10-25T10:27:16.900Z,80.8
2022-10-25T10:28:17.397Z,81.0
2022-10-25T10:29:18.091Z,81.3
2022-10-25T10:30:16.540Z,82.1
2022-10-25T10:31:16.978Z,82.6
2022-10-25T10:32:16.930Z,82.2
2022-10-25T10:33:17.358Z,82.5
2022-10-25T10:34:16.822Z,83.2
2022-10-25T10:35:17.338Z,83.5
2022-10-25T10:36:16.793Z,83.7
2022-10-25T10:37:17.297Z,83.1
2022-10-25T10:38:16.794Z,82.8
2022-10-25T10:39:17.281Z,82.7
2022-10-25T10:40:16.783Z,82.7
2022-10-25T10:41:17.264Z,82.5
2022-10-25T10:42:17.222Z,82.3
2022-10-25T10:43:16.768Z,83.0
2022-10-25T10:44:17.189Z,83.6
2022-10-25T10:45:16.612Z,83.6
2022-10-25T10:46:17.057Z,83.0
2022-10-25T10:47:16.518Z,83.7
2022-10-25T10:48:16.939Z,83.4
2022-10-25T10:49:17.385Z,82.8
2022-10-25T10:50:16.852Z,82.7
2022-10-25T10:51:43.367Z,83.7
2022-10-25T10:52:16.900Z,82.5
2022-10-25T10:53:17.372Z,82.8
2022-10-25T10:54:16.840Z,83.0
2022-10-25T10:55:17.338Z,83.0
2022-10-25T10:56:16.826Z,82.8
2022-10-25T10:57:17.270Z,83.1
2022-10-25T10:58:16.691Z,83.6
2022-10-25T10:59:17.138Z,82.7
2022-10-25T11:00:16.623Z,82.3
2022-10-25T11:01:17.377Z,81.7
2022-10-25T11:02:17.072Z,82.6
2022-10-25T11:03:16.739Z,82.2
2022-10-25T11:04:17.212Z,82.5
2022-10-25T11:05:16.686Z,81.7
2022-10-25T11:06:17.175Z,81.8
2022-10-25T11:07:16.641Z,82.1
2022-10-25T11:08:17.140Z,82.8
2022-10-25T11:09:16.625Z,82.3
2022-10-25T11:10:17.105Z,82.2
2022-10-25T11:11:16.569Z,81.8
2022-10-25T11:12:17.268Z,81.8
2022-10-25T11:13:16.728Z,81.7
2022-10-25T11:14:17.148Z,81.8
2022-10-25T11:15:16.605Z,81.8
2022-10-25T11:16:17.028Z,82.0
2022-10-25T11:17:16.482Z,82.5
2022-10-25T11:18:16.923Z,81.8
2022-10-25T11:19:17.401Z,81.7
2022-10-25T11:20:16.883Z,81.5
2022-10-25T11:21:17.372Z,81.6
2022-10-25T11:22:17.057Z,82.3
2022-10-25T11:23:16.528Z,81.7
2022-10-25T11:24:17.030Z,80.8
2022-10-25T11:25:16.514Z,81.3
2022-10-25T11:26:16.952Z,81.0
2022-10-25T11:27:17.417Z,81.0
2022-10-25T11:28:16.872Z,81.2
2022-10-25T11:29:17.295Z,80.5
2022-10-25T11:30:16.771Z,80.2
2022-10-25T11:31:17.200Z,79.8
2022-10-25T11:32:17.034Z,81.3
2022-10-25T11:33:16.471Z,80.2
2022-10-25T11:34:16.948Z,79.7
2022-10-25T11:35:17.428Z,79.9
2022-10-25T11:36:16.922Z,80.4
2022-10-25T11:37:17.409Z,80.7
2022-10-25T11:38:16.909Z,80.6
2022-10-25T11:39:17.402Z,80.3
2022-10-25T11:40:16.855Z,79.4
2022-10-25T11:41:17.297Z,79.6
2022-10-25T11:42:17.307Z,78.9
2022-10-25T11:43:16.736Z,79.0
2022-10-25T11:44:17.183Z,78.9
2022-10-25T11:45:16.658Z,79.0
2022-10-25T11:46:17.098Z,79.8
2022-10-25T11:47:16.538Z,79.3
2022-10-25T11:48:17.007Z,78.2
2022-10-25T11:49:16.467Z,77.9
2022-10-25T11:50:16.946Z,78.4
2022-10-25T11:51:17.409Z,79.0
2022-10-25T11:52:17.258Z,78.0
2022-10-25T11:53:16.734Z,78.4
2022-10-25T11:54:17.204Z,77.5
2022-10-25T11:55:16.627Z,77.2
2022-10-25T11:56:17.069Z,77.5
2022-10-25T11:57:16.559Z,77.4
2022-10-25T11:58:17.013Z,77.1
2022-10-25T11:59:16.478Z,77.0
2022-10-25T12:00:17.103Z,76.8
2022-10-25T12:01:16.717Z,76.5
2022-10-25T12:02:16.885Z,77.2
2022-10-25T12:03:17.351Z,76.8
2022-10-25T12:04:16.813Z,76.7
2022-10-25T12:05:17.308Z,76.5
2022-10-25T12:06:16.770Z,77.3
2022-10-25T12:07:17.250Z,77.5
2022-10-25T12:08:16.719Z,77.2
2022-10-25T12:09:17.197Z,77.4
2022-10-25T12:10:16.687Z,77.8
2022-10-25T12:11:19.171Z,76.8
2022-10-25T12:12:16.879Z,76.6
2022-10-25T12:13:17.321Z,76.6
2022-10-25T12:14:16.805Z,75.9
2022-10-25T12:15:17.259Z,76.3
2022-10-25T12:16:16.723Z,76.4
2022-10-25T12:17:17.239Z,76.4
2022-10-25T12:18:16.711Z,76.0
2022-10-25T12:19:17.198Z,76.8
2022-10-25T12:20:16.703Z,76.2
2022-10-25T12:21:17.477Z,76.4
2022-10-25T12:22:17.114Z,76.3
2022-10-25T12:23:16.590Z,76.3
2022-10-25T12:24:17.076Z,76.1
2022-10-25T12:25:16.665Z,75.8
2022-10-25T12:26:17.423Z,76.5
2022-10-25T12:27:17.064Z,76.7
2022-10-25T12:28:16.558Z,76.0
2022-10-25T12:29:16.980Z,77.8
2022-10-25T12:30:16.568Z,77.4
2022-10-25T12:31:17.056Z,76.8
2022-10-25T12:32:17.343Z,76.5
2022-10-25T12:33:16.777Z,76.3
2022-10-25T12:34:17.259Z,75.7
2022-10-25T12:35:16.725Z,75.8
2022-10-25T12:36:17.213Z,75.2
2022-10-25T12:37:16.685Z,75.2
2022-10-25T12:38:17.166Z,74.6
2022-10-25T12:39:16.639Z,74.6
2022-10-25T12:40:17.228Z,74.6
2022-10-25T12:41:16.704Z,74.2
2022-10-25T12:42:16.859Z,74.3
2022-10-25T12:43:17.294Z,73.4
2022-10-25T12:44:16.726Z,73.1
2022-10-25T12:45:17.166Z,72.7
2022-10-25T12:46:16.595Z,72.2
2022-10-25T12:47:17.021Z,72.2
2022-10-25T12:48:16.444Z,72.6
2022-10-25T12:49:16.954Z,73.0
2022-10-25T12:51:19.151Z,72.9
2022-10-25T12:52:17.246Z,73.6
2022-10-25T12:53:16.753Z,73.2
2022-10-25T12:54:17.267Z,73.8
2022-10-25T12:55:16.698Z,73.2
2022-10-25T12:56:17.149Z,73.1
2022-10-25T12:57:16.575Z,73.0
2022-10-25T12:58:17.063Z,72.8
2022-10-25T12:59:16.491Z,72.8
2022-10-25T13:00:17.040Z,73.1
2022-10-25T13:01:16.641Z,73.2
2022-10-25T13:02:16.517Z,73.3
2022-10-25T13:03:19.781Z,73.4
2022-10-25T13:04:17.290Z,73.8
2022-10-25T13:05:16.738Z,74.8
2022-10-25T13:06:17.211Z,74.1
2022-10-25T13:07:16.681Z,74.3
2022-10-25T13:08:17.160Z,74.5
2022-10-25T13:09:16.634Z,74.0
2022-10-25T13:10:17.166Z,73.4
2022-10-25T13:11:16.632Z,73.3
2022-10-25T13:12:16.474Z,73.3
2022-10-25T13:13:16.888Z,73.1
2022-10-25T13:14:17.349Z,73.5
2022-10-25T13:15:16.795Z,72.7
2022-10-25T13:16:17.219Z,71.9
2022-10-25T13:17:16.707Z,71.8
2022-10-25T13:18:22.410Z,71.8
2022-10-25T13:19:53.376Z,72.2
2022-10-25T13:21:16.853Z,73.1
2022-10-25T13:22:16.730Z,72.8
2022-10-25T13:23:17.189Z,73.5
2022-10-25T13:24:16.647Z,73.2
2022-10-25T13:25:17.090Z,73.4